sensor_id;sensor_type;location;lat;lon;timestamp;P1;durP1;ratioP1;P2;durP2;ratioP2
70138;SDS011;57507;43.056;0.150;2023-03-01T00:01:49;6.10;;;4.00;;
70138;SDS011;57507;43.056;0.150;2023-03-01T00:04:15;4.93;;;3.28;;
70138;SDS011;57507;43.056;0.150;2023-03-01T00:06:42;4.50;;;3.10;;
70138;SDS011;57507;43.056;0.150;2023-03-01T00:09:11;5.10;;;3.78;;
70138;SDS011;57507;43.056;0.150;2023-03-01T00:11:37;5.68;;;4.03;;
70138;SDS011;57507;43.056;0.150;2023-03-01T00:14:03;6.15;;;4.25;;
70138;SDS011;57507;43.056;0.150;2023-03-01T00:16:34;11.02;;;4.70;;
70138;SDS011;57507;43.056;0.150;2023-03-01T00:19:01;7.43;;;4.90;;
70138;SDS011;57507;43.056;0.150;2023-03-01T00:21:27;9.00;;;4.32;;
70138;SDS011;57507;43.056;0.150;2023-03-01T00:23:54;7.07;;;4.03;;
70138;SDS011;57507;43.056;0.150;2023-03-01T00:26:20;5.47;;;4.10;;
70138;SDS011;57507;43.056;0.150;2023-03-01T00:28:47;7.75;;;3.83;;
70138;SDS011;57507;43.056;0.150;2023-03-01T00:31:14;4.63;;;3.60;;
70138;SDS011;57507;43.056;0.150;2023-03-01T00:33:42;6.57;;;4.15;;
70138;SDS011;57507;43.056;0.150;2023-03-01T00:36:08;6.45;;;3.38;;
70138;SDS011;57507;43.056;0.150;2023-03-01T00:38:37;5.38;;;3.97;;
70138;SDS011;57507;43.056;0.150;2023-03-01T00:41:08;4.78;;;4.20;;
70138;SDS011;57507;43.056;0.150;2023-03-01T00:43:35;5.55;;;3.55;;
70138;SDS011;57507;43.056;0.150;2023-03-01T00:46:05;4.03;;;3.30;;
70138;SDS011;57507;43.056;0.150;2023-03-01T00:48:32;7.82;;;4.30;;
70138;SDS011;57507;43.056;0.150;2023-03-01T00:51:04;5.72;;;3.40;;
70138;SDS011;57507;43.056;0.150;2023-03-01T00:53:30;5.38;;;3.90;;
70138;SDS011;57507;43.056;0.150;2023-03-01T00:55:57;5.25;;;3.88;;
70138;SDS011;57507;43.056;0.150;2023-03-01T00:58:23;5.80;;;3.70;;
70138;SDS011;57507;43.056;0.150;2023-03-01T01:00:49;6.28;;;3.97;;
70138;SDS011;57507;43.056;0.150;2023-03-01T01:03:15;4.97;;;3.20;;
70138;SDS011;57507;43.056;0.150;2023-03-01T01:05:41;5.05;;;3.95;;
70138;SDS011;57507;43.056;0.150;2023-03-01T01:08:07;5.28;;;3.50;;
70138;SDS011;57507;43.056;0.150;2023-03-01T01:10:34;5.38;;;4.38;;
70138;SDS011;57507;43.056;0.150;2023-03-01T01:13:00;6.10;;;3.38;;
70138;SDS011;57507;43.056;0.150;2023-03-01T01:15:26;5.28;;;4.00;;
70138;SDS011;57507;43.056;0.150;2023-03-01T01:17:52;5.00;;;3.65;;
70138;SDS011;57507;43.056;0.150;2023-03-01T01:20:18;5.05;;;3.80;;
70138;SDS011;57507;43.056;0.150;2023-03-01T01:22:44;5.90;;;4.20;;
70138;SDS011;57507;43.056;0.150;2023-03-01T01:25:10;5.05;;;3.45;;
70138;SDS011;57507;43.056;0.150;2023-03-01T01:27:36;6.53;;;4.03;;
70138;SDS011;57507;43.056;0.150;2023-03-01T01:30:03;4.25;;;3.58;;
70138;SDS011;57507;43.056;0.150;2023-03-01T01:32:29;6.57;;;4.50;;
70138;SDS011;57507;43.056;0.150;2023-03-01T01:34:55;4.65;;;3.60;;
70138;SDS011;57507;43.056;0.150;2023-03-01T01:37:21;7.53;;;4.20;;
70138;SDS011;57507;43.056;0.150;2023-03-01T01:39:47;5.82;;;3.63;;
70138;SDS011;57507;43.056;0.150;2023-03-01T01:42:17;4.68;;;4.18;;
70138;SDS011;57507;43.056;0.150;2023-03-01T01:44:45;7.57;;;4.18;;
70138;SDS011;57507;43.056;0.150;2023-03-01T01:49:42;4.88;;;4.10;;
70138;SDS011;57507;43.056;0.150;2023-03-01T01:57:06;6.13;;;4.15;;
70138;SDS011;57507;43.056;0.150;2023-03-01T01:59:33;7.97;;;4.57;;
70138;SDS011;57507;43.056;0.150;2023-03-01T02:01:59;5.50;;;3.78;;
70138;SDS011;57507;43.056;0.150;2023-03-01T02:04:27;6.85;;;4.00;;
70138;SDS011;57507;43.056;0.150;2023-03-01T02:06:55;5.10;;;3.63;;
70138;SDS011;57507;43.056;0.150;2023-03-01T02:09:23;6.95;;;3.97;;
70138;SDS011;57507;43.056;0.150;2023-03-01T02:11:50;6.75;;;3.80;;
70138;SDS011;57507;43.056;0.150;2023-03-01T02:14:17;6.72;;;3.72;;
70138;SDS011;57507;43.056;0.150;2023-03-01T02:16:43;4.60;;;3.90;;
70138;SDS011;57507;43.056;0.150;2023-03-01T02:19:10;5.28;;;3.85;;
70138;SDS011;57507;43.056;0.150;2023-03-01T02:21:49;5.05;;;4.13;;
70138;SDS011;57507;43.056;0.150;2023-03-01T02:26:55;4.88;;;3.30;;
70138;SDS011;57507;43.056;0.150;2023-03-01T02:29:22;4.43;;;3.70;;
70138;SDS011;57507;43.056;0.150;2023-03-01T02:31:49;4.05;;;3.53;;
70138;SDS011;57507;43.056;0.150;2023-03-01T02:34:17;5.43;;;3.65;;
70138;SDS011;57507;43.056;0.150;2023-03-01T02:36:48;4.50;;;3.28;;
70138;SDS011;57507;43.056;0.150;2023-03-01T02:39:17;3.97;;;3.00;;
70138;SDS011;57507;43.056;0.150;2023-03-01T02:41:47;5.22;;;3.25;;
70138;SDS011;57507;43.056;0.150;2023-03-01T02:44:14;5.00;;;3.40;;
70138;SDS011;57507;43.056;0.150;2023-03-01T02:46:50;5.20;;;3.50;;
70138;SDS011;57507;43.056;0.150;2023-03-01T02:56:46;4.63;;;3.53;;
70138;SDS011;57507;43.056;0.150;2023-03-01T02:59:14;3.97;;;3.00;;
70138;SDS011;57507;43.056;0.150;2023-03-01T03:01:40;6.60;;;3.55;;
70138;SDS011;57507;43.056;0.150;2023-03-01T03:04:08;4.43;;;2.70;;
70138;SDS011;57507;43.056;0.150;2023-03-01T03:06:35;3.60;;;2.75;;
70138;SDS011;57507;43.056;0.150;2023-03-01T03:09:01;5.55;;;2.95;;
70138;SDS011;57507;43.056;0.150;2023-03-01T03:11:27;3.97;;;3.33;;
70138;SDS011;57507;43.056;0.150;2023-03-01T03:13:53;7.07;;;3.55;;
70138;SDS011;57507;43.056;0.150;2023-03-01T03:16:20;5.45;;;3.38;;
70138;SDS011;57507;43.056;0.150;2023-03-01T03:18:46;4.10;;;3.22;;
70138;SDS011;57507;43.056;0.150;2023-03-01T03:21:13;3.70;;;2.80;;
70138;SDS011;57507;43.056;0.150;2023-03-01T03:23:39;4.57;;;3.05;;
70138;SDS011;57507;43.056;0.150;2023-03-01T03:26:05;4.03;;;3.30;;
70138;SDS011;57507;43.056;0.150;2023-03-01T03:28:32;3.90;;;2.92;;
70138;SDS011;57507;43.056;0.150;2023-03-01T03:30:58;4.68;;;3.42;;
70138;SDS011;57507;43.056;0.150;2023-03-01T03:33:29;4.65;;;3.08;;
70138;SDS011;57507;43.056;0.150;2023-03-01T03:35:55;3.55;;;2.83;;
70138;SDS011;57507;43.056;0.150;2023-03-01T03:38:21;5.03;;;3.65;;
70138;SDS011;57507;43.056;0.150;2023-03-01T03:41:06;3.50;;;2.80;;
70138;SDS011;57507;43.056;0.150;2023-03-01T03:43:34;6.38;;;3.47;;
70138;SDS011;57507;43.056;0.150;2023-03-01T03:46:00;6.97;;;3.67;;
70138;SDS011;57507;43.056;0.150;2023-03-01T03:48:30;5.25;;;4.07;;
70138;SDS011;57507;43.056;0.150;2023-03-01T03:50:56;6.00;;;3.60;;
70138;SDS011;57507;43.056;0.150;2023-03-01T03:53:23;3.17;;;2.88;;
70138;SDS011;57507;43.056;0.150;2023-03-01T03:55:49;3.78;;;3.10;;
70138;SDS011;57507;43.056;0.150;2023-03-01T03:58:16;4.40;;;3.38;;
70138;SDS011;57507;43.056;0.150;2023-03-01T04:00:44;5.15;;;4.03;;
70138;SDS011;57507;43.056;0.150;2023-03-01T04:03:12;3.55;;;2.78;;
70138;SDS011;57507;43.056;0.150;2023-03-01T04:05:39;5.22;;;3.35;;
70138;SDS011;57507;43.056;0.150;2023-03-01T04:08:05;3.78;;;2.58;;
70138;SDS011;57507;43.056;0.150;2023-03-01T04:10:38;4.30;;;3.08;;
70138;SDS011;57507;43.056;0.150;2023-03-01T04:13:05;3.30;;;2.30;;
70138;SDS011;57507;43.056;0.150;2023-03-01T04:15:32;3.20;;;2.42;;
70138;SDS011;57507;43.056;0.150;2023-03-01T04:17:58;4.53;;;2.70;;
70138;SDS011;57507;43.056;0.150;2023-03-01T04:20:26;4.32;;;2.53;;
70138;SDS011;57507;43.056;0.150;2023-03-01T04:22:57;4.43;;;2.60;;
70138;SDS011;57507;43.056;0.150;2023-03-01T04:25:23;3.00;;;2.58;;
70138;SDS011;57507;43.056;0.150;2023-03-01T04:27:49;3.83;;;2.70;;
70138;SDS011;57507;43.056;0.150;2023-03-01T04:30:16;3.40;;;2.40;;
70138;SDS011;57507;43.056;0.150;2023-03-01T04:32:42;4.55;;;2.85;;
70138;SDS011;57507;43.056;0.150;2023-03-01T04:35:08;3.60;;;2.40;;
70138;SDS011;57507;43.056;0.150;2023-03-01T04:37:34;4.00;;;2.88;;
70138;SDS011;57507;43.056;0.150;2023-03-01T04:40:01;3.80;;;2.35;;
70138;SDS011;57507;43.056;0.150;2023-03-01T04:42:41;3.17;;;2.33;;
70138;SDS011;57507;43.056;0.150;2023-03-01T04:45:07;3.65;;;3.05;;
70138;SDS011;57507;43.056;0.150;2023-03-01T04:47:38;3.60;;;2.80;;
70138;SDS011;57507;43.056;0.150;2023-03-01T04:50:04;2.72;;;2.35;;
70138;SDS011;57507;43.056;0.150;2023-03-01T04:52:31;4.70;;;2.92;;
70138;SDS011;57507;43.056;0.150;2023-03-01T04:54:57;3.60;;;2.67;;
70138;SDS011;57507;43.056;0.150;2023-03-01T04:57:23;4.07;;;3.35;;
70138;SDS011;57507;43.056;0.150;2023-03-01T04:59:49;3.40;;;2.58;;
70138;SDS011;57507;43.056;0.150;2023-03-01T05:02:15;5.55;;;2.47;;
70138;SDS011;57507;43.056;0.150;2023-03-01T05:04:41;5.57;;;2.50;;
70138;SDS011;57507;43.056;0.150;2023-03-01T05:07:07;3.72;;;2.17;;
70138;SDS011;57507;43.056;0.150;2023-03-01T05:09:33;4.00;;;2.97;;
70138;SDS011;57507;43.056;0.150;2023-03-01T05:11:59;3.00;;;2.33;;
70138;SDS011;57507;43.056;0.150;2023-03-01T05:14:25;3.55;;;2.78;;
70138;SDS011;57507;43.056;0.150;2023-03-01T05:16:51;2.60;;;2.15;;
70138;SDS011;57507;43.056;0.150;2023-03-01T05:19:17;2.90;;;2.60;;
70138;SDS011;57507;43.056;0.150;2023-03-01T05:21:47;3.25;;;2.22;;
70138;SDS011;57507;43.056;0.150;2023-03-01T05:24:32;3.78;;;2.53;;
70138;SDS011;57507;43.056;0.150;2023-03-01T05:26:59;3.10;;;2.22;;
70138;SDS011;57507;43.056;0.150;2023-03-01T05:29:25;3.47;;;2.60;;
70138;SDS011;57507;43.056;0.150;2023-03-01T05:31:52;3.05;;;2.35;;
70138;SDS011;57507;43.056;0.150;2023-03-01T05:34:22;3.33;;;2.63;;
70138;SDS011;57507;43.056;0.150;2023-03-01T05:36:48;2.72;;;2.33;;
70138;SDS011;57507;43.056;0.150;2023-03-01T05:39:18;4.15;;;2.42;;
70138;SDS011;57507;43.056;0.150;2023-03-01T05:41:44;3.40;;;2.60;;
70138;SDS011;57507;43.056;0.150;2023-03-01T05:44:10;3.10;;;2.45;;
70138;SDS011;57507;43.056;0.150;2023-03-01T05:46:37;3.72;;;2.55;;
70138;SDS011;57507;43.056;0.150;2023-03-01T05:49:03;3.13;;;2.42;;
70138;SDS011;57507;43.056;0.150;2023-03-01T05:51:30;2.92;;;2.45;;
70138;SDS011;57507;43.056;0.150;2023-03-01T05:53:57;3.38;;;2.65;;
70138;SDS011;57507;43.056;0.150;2023-03-01T05:56:23;3.13;;;2.58;;
70138;SDS011;57507;43.056;0.150;2023-03-01T05:58:49;3.50;;;2.63;;
70138;SDS011;57507;43.056;0.150;2023-03-01T06:01:15;3.42;;;2.50;;
70138;SDS011;57507;43.056;0.150;2023-03-01T06:03:41;3.58;;;2.40;;
70138;SDS011;57507;43.056;0.150;2023-03-01T06:06:07;3.33;;;2.40;;
70138;SDS011;57507;43.056;0.150;2023-03-01T06:08:33;3.10;;;2.47;;
70138;SDS011;57507;43.056;0.150;2023-03-01T06:10:59;3.20;;;2.72;;
70138;SDS011;57507;43.056;0.150;2023-03-01T06:13:25;4.95;;;2.65;;
70138;SDS011;57507;43.056;0.150;2023-03-01T06:15:51;3.97;;;2.45;;
70138;SDS011;57507;43.056;0.150;2023-03-01T06:18:17;3.90;;;2.40;;
70138;SDS011;57507;43.056;0.150;2023-03-01T06:20:43;4.22;;;2.80;;
70138;SDS011;57507;43.056;0.150;2023-03-01T06:23:09;5.57;;;2.67;;
70138;SDS011;57507;43.056;0.150;2023-03-01T06:25:35;3.42;;;2.72;;
70138;SDS011;57507;43.056;0.150;2023-03-01T06:28:02;3.30;;;2.45;;
70138;SDS011;57507;43.056;0.150;2023-03-01T06:30:29;3.85;;;2.33;;
70138;SDS011;57507;43.056;0.150;2023-03-01T06:32:55;4.05;;;2.90;;
70138;SDS011;57507;43.056;0.150;2023-03-01T06:35:25;3.40;;;2.05;;
70138;SDS011;57507;43.056;0.150;2023-03-01T06:37:55;3.45;;;2.88;;
70138;SDS011;57507;43.056;0.150;2023-03-01T06:40:21;3.47;;;2.63;;
70138;SDS011;57507;43.056;0.150;2023-03-01T06:42:48;4.07;;;2.72;;
70138;SDS011;57507;43.056;0.150;2023-03-01T06:45:15;3.72;;;2.75;;
70138;SDS011;57507;43.056;0.150;2023-03-01T06:47:41;3.58;;;2.45;;
70138;SDS011;57507;43.056;0.150;2023-03-01T06:50:07;7.07;;;2.80;;
70138;SDS011;57507;43.056;0.150;2023-03-01T06:52:33;4.05;;;2.58;;
70138;SDS011;57507;43.056;0.150;2023-03-01T06:54:59;5.82;;;5.13;;
70138;SDS011;57507;43.056;0.150;2023-03-01T06:57:25;3.95;;;2.92;;
70138;SDS011;57507;43.056;0.150;2023-03-01T06:59:51;3.70;;;2.72;;
70138;SDS011;57507;43.056;0.150;2023-03-01T07:02:18;4.57;;;2.60;;
70138;SDS011;57507;43.056;0.150;2023-03-01T07:04:44;2.83;;;2.17;;
70138;SDS011;57507;43.056;0.150;2023-03-01T07:07:10;2.80;;;2.20;;
70138;SDS011;57507;43.056;0.150;2023-03-01T07:09:36;3.25;;;2.88;;
70138;SDS011;57507;43.056;0.150;2023-03-01T07:12:02;4.90;;;2.53;;
70138;SDS011;57507;43.056;0.150;2023-03-01T07:14:28;3.47;;;2.50;;
70138;SDS011;57507;43.056;0.150;2023-03-01T07:16:54;5.00;;;3.10;;
70138;SDS011;57507;43.056;0.150;2023-03-01T07:19:21;3.33;;;2.58;;
70138;SDS011;57507;43.056;0.150;2023-03-01T07:21:47;3.15;;;2.20;;
70138;SDS011;57507;43.056;0.150;2023-03-01T07:24:13;4.15;;;3.00;;
70138;SDS011;57507;43.056;0.150;2023-03-01T07:26:39;2.70;;;2.20;;
70138;SDS011;57507;43.056;0.150;2023-03-01T07:29:06;4.28;;;2.55;;
70138;SDS011;57507;43.056;0.150;2023-03-01T07:31:33;4.03;;;2.70;;
70138;SDS011;57507;43.056;0.150;2023-03-01T07:33:59;4.05;;;2.90;;
70138;SDS011;57507;43.056;0.150;2023-03-01T07:36:25;5.05;;;2.88;;
70138;SDS011;57507;43.056;0.150;2023-03-01T07:38:51;4.60;;;2.35;;
70138;SDS011;57507;43.056;0.150;2023-03-01T07:41:17;3.90;;;2.80;;
70138;SDS011;57507;43.056;0.150;2023-03-01T07:43:43;5.15;;;3.45;;
70138;SDS011;57507;43.056;0.150;2023-03-01T07:46:10;4.28;;;2.33;;
70138;SDS011;57507;43.056;0.150;2023-03-01T07:48:36;2.92;;;2.17;;
70138;SDS011;57507;43.056;0.150;2023-03-01T07:51:03;4.05;;;2.92;;
70138;SDS011;57507;43.056;0.150;2023-03-01T07:53:29;4.30;;;2.42;;
70138;SDS011;57507;43.056;0.150;2023-03-01T07:58:28;2.85;;;2.55;;
70138;SDS011;57507;43.056;0.150;2023-03-01T08:00:54;4.97;;;3.03;;
70138;SDS011;57507;43.056;0.150;2023-03-01T08:03:20;4.13;;;2.45;;
70138;SDS011;57507;43.056;0.150;2023-03-01T08:05:46;6.35;;;4.57;;
70138;SDS011;57507;43.056;0.150;2023-03-01T08:08:12;5.30;;;3.20;;
70138;SDS011;57507;43.056;0.150;2023-03-01T08:10:38;4.55;;;2.95;;
70138;SDS011;57507;43.056;0.150;2023-03-01T08:13:04;3.45;;;2.92;;
70138;SDS011;57507;43.056;0.150;2023-03-01T08:15:30;4.78;;;3.65;;
70138;SDS011;57507;43.056;0.150;2023-03-01T08:17:56;6.20;;;3.67;;
70138;SDS011;57507;43.056;0.150;2023-03-01T08:20:22;5.95;;;3.25;;
70138;SDS011;57507;43.056;0.150;2023-03-01T08:22:48;8.65;;;4.20;;
70138;SDS011;57507;43.056;0.150;2023-03-01T08:25:14;5.50;;;3.80;;
70138;SDS011;57507;43.056;0.150;2023-03-01T08:27:40;6.00;;;3.90;;
70138;SDS011;57507;43.056;0.150;2023-03-01T08:30:06;11.82;;;7.85;;
70138;SDS011;57507;43.056;0.150;2023-03-01T08:32:39;5.88;;;3.60;;
70138;SDS011;57507;43.056;0.150;2023-03-01T08:35:05;4.60;;;3.33;;
70138;SDS011;57507;43.056;0.150;2023-03-01T08:37:31;4.55;;;3.60;;
70138;SDS011;57507;43.056;0.150;2023-03-01T08:39:58;5.55;;;3.78;;
70138;SDS011;57507;43.056;0.150;2023-03-01T08:42:25;6.18;;;4.00;;
70138;SDS011;57507;43.056;0.150;2023-03-01T08:44:51;4.35;;;3.42;;
70138;SDS011;57507;43.056;0.150;2023-03-01T08:47:17;6.47;;;5.05;;
70138;SDS011;57507;43.056;0.150;2023-03-01T08:49:43;8.13;;;5.00;;
70138;SDS011;57507;43.056;0.150;2023-03-01T08:52:09;7.18;;;4.82;;
70138;SDS011;57507;43.056;0.150;2023-03-01T08:54:35;5.15;;;4.05;;
70138;SDS011;57507;43.056;0.150;2023-03-01T08:57:02;4.38;;;3.47;;
70138;SDS011;57507;43.056;0.150;2023-03-01T08:59:28;5.07;;;3.47;;
70138;SDS011;57507;43.056;0.150;2023-03-01T09:01:55;5.57;;;3.80;;
70138;SDS011;57507;43.056;0.150;2023-03-01T09:04:21;6.97;;;3.70;;
70138;SDS011;57507;43.056;0.150;2023-03-01T09:06:47;6.78;;;4.03;;
70138;SDS011;57507;43.056;0.150;2023-03-01T09:09:14;5.55;;;3.95;;
70138;SDS011;57507;43.056;0.150;2023-03-01T09:11:41;8.27;;;4.28;;
70138;SDS011;57507;43.056;0.150;2023-03-01T09:14:07;5.65;;;3.72;;
70138;SDS011;57507;43.056;0.150;2023-03-01T09:16:33;4.93;;;4.28;;
70138;SDS011;57507;43.056;0.150;2023-03-01T09:19:01;4.95;;;4.03;;
70138;SDS011;57507;43.056;0.150;2023-03-01T09:21:27;6.30;;;4.50;;
70138;SDS011;57507;43.056;0.150;2023-03-01T09:23:53;6.35;;;4.55;;
70138;SDS011;57507;43.056;0.150;2023-03-01T09:26:19;6.90;;;4.03;;
70138;SDS011;57507;43.056;0.150;2023-03-01T09:28:50;5.10;;;3.78;;
70138;SDS011;57507;43.056;0.150;2023-03-01T09:31:17;5.75;;;4.05;;
70138;SDS011;57507;43.056;0.150;2023-03-01T09:33:45;7.80;;;5.18;;
70138;SDS011;57507;43.056;0.150;2023-03-01T09:36:15;6.72;;;4.85;;
70138;SDS011;57507;43.056;0.150;2023-03-01T09:38:42;6.53;;;4.65;;
70138;SDS011;57507;43.056;0.150;2023-03-01T09:43:52;7.82;;;4.25;;
70138;SDS011;57507;43.056;0.150;2023-03-01T09:46:21;4.78;;;3.85;;
70138;SDS011;57507;43.056;0.150;2023-03-01T09:49:05;8.02;;;4.47;;
70138;SDS011;57507;43.056;0.150;2023-03-01T09:51:33;6.60;;;4.00;;
70138;SDS011;57507;43.056;0.150;2023-03-01T09:54:03;5.85;;;3.88;;
70138;SDS011;57507;43.056;0.150;2023-03-01T09:56:34;6.20;;;4.60;;
70138;SDS011;57507;43.056;0.150;2023-03-01T10:01:45;5.57;;;4.50;;
70138;SDS011;57507;43.056;0.150;2023-03-01T10:04:28;5.85;;;3.92;;
70138;SDS011;57507;43.056;0.150;2023-03-01T10:07:17;5.93;;;4.13;;
70138;SDS011;57507;43.056;0.150;2023-03-01T10:09:42;5.97;;;4.45;;
70138;SDS011;57507;43.056;0.150;2023-03-01T10:12:09;6.43;;;4.03;;
70138;SDS011;57507;43.056;0.150;2023-03-01T10:17:03;4.65;;;4.07;;
70138;SDS011;57507;43.056;0.150;2023-03-01T10:21:55;5.57;;;4.50;;
70138;SDS011;57507;43.056;0.150;2023-03-01T10:24:23;7.28;;;4.57;;
70138;SDS011;57507;43.056;0.150;2023-03-01T10:29:15;7.75;;;7.05;;
70138;SDS011;57507;43.056;0.150;2023-03-01T10:31:46;6.53;;;4.65;;
70138;SDS011;57507;43.056;0.150;2023-03-01T10:34:13;5.55;;;4.72;;
70138;SDS011;57507;43.056;0.150;2023-03-01T10:36:40;4.82;;;4.20;;
70138;SDS011;57507;43.056;0.150;2023-03-01T10:39:20;6.50;;;4.47;;
70138;SDS011;57507;43.056;0.150;2023-03-01T10:47:14;6.10;;;4.20;;
70138;SDS011;57507;43.056;0.150;2023-03-01T10:49:51;6.32;;;4.70;;
70138;SDS011;57507;43.056;0.150;2023-03-01T10:52:18;7.22;;;3.80;;
70138;SDS011;57507;43.056;0.150;2023-03-01T10:54:58;4.20;;;3.78;;
70138;SDS011;57507;43.056;0.150;2023-03-01T10:57:29;4.55;;;3.30;;
70138;SDS011;57507;43.056;0.150;2023-03-01T11:02:42;4.93;;;3.63;;
70138;SDS011;57507;43.056;0.150;2023-03-01T11:05:19;5.22;;;4.15;;
70138;SDS011;57507;43.056;0.150;2023-03-01T11:07:49;5.47;;;3.28;;
70138;SDS011;57507;43.056;0.150;2023-03-01T11:10:34;4.95;;;3.47;;
70138;SDS011;57507;43.056;0.150;2023-03-01T11:13:14;4.55;;;3.40;;
70138;SDS011;57507;43.056;0.150;2023-03-01T11:15:41;6.72;;;4.03;;
70138;SDS011;57507;43.056;0.150;2023-03-01T11:18:18;4.72;;;3.40;;
70138;SDS011;57507;43.056;0.150;2023-03-01T11:20:45;6.13;;;3.22;;
70138;SDS011;57507;43.056;0.150;2023-03-01T11:23:14;3.85;;;3.25;;
70138;SDS011;57507;43.056;0.150;2023-03-01T11:25:47;5.57;;;3.45;;
70138;SDS011;57507;43.056;0.150;2023-03-01T11:28:16;3.88;;;3.30;;
70138;SDS011;57507;43.056;0.150;2023-03-01T11:33:20;4.93;;;3.13;;
70138;SDS011;57507;43.056;0.150;2023-03-01T11:35:57;3.85;;;3.15;;
70138;SDS011;57507;43.056;0.150;2023-03-01T11:38:26;4.65;;;4.13;;
70138;SDS011;57507;43.056;0.150;2023-03-01T11:41:00;3.45;;;2.88;;
70138;SDS011;57507;43.056;0.150;2023-03-01T11:54:27;3.15;;;2.65;;
70138;SDS011;57507;43.056;0.150;2023-03-01T11:57:07;4.33;;;3.07;;
70138;SDS011;57507;43.056;0.150;2023-03-01T12:06:56;4.13;;;2.60;;
70138;SDS011;57507;43.056;0.150;2023-03-01T12:22:19;4.18;;;2.95;;
70138;SDS011;57507;43.056;0.150;2023-03-01T12:24:50;3.05;;;2.50;;
70138;SDS011;57507;43.056;0.150;2023-03-01T12:32:32;4.85;;;3.28;;
70138;SDS011;57507;43.056;0.150;2023-03-01T12:48:17;2.92;;;2.28;;
70138;SDS011;57507;43.056;0.150;2023-03-01T12:50:52;5.60;;;3.05;;
70138;SDS011;57507;43.056;0.150;2023-03-01T12:55:50;4.30;;;2.30;;
70138;SDS011;57507;43.056;0.150;2023-03-01T12:58:21;3.72;;;2.70;;
70138;SDS011;57507;43.056;0.150;2023-03-01T13:03:35;3.88;;;3.40;;
70138;SDS011;57507;43.056;0.150;2023-03-01T13:06:08;3.38;;;2.83;;
70138;SDS011;57507;43.056;0.150;2023-03-01T13:11:19;5.47;;;3.47;;
70138;SDS011;57507;43.056;0.150;2023-03-01T13:13:46;3.45;;;3.15;;
70138;SDS011;57507;43.056;0.150;2023-03-01T13:19:14;5.68;;;2.90;;
70138;SDS011;57507;43.056;0.150;2023-03-01T13:21:41;6.43;;;3.92;;
70138;SDS011;57507;43.056;0.150;2023-03-01T13:24:27;5.30;;;3.42;;
70138;SDS011;57507;43.056;0.150;2023-03-01T13:27:38;3.60;;;2.85;;
70138;SDS011;57507;43.056;0.150;2023-03-01T13:29:49;5.55;;;3.65;;
70138;SDS011;57507;43.056;0.150;2023-03-01T13:32:22;3.53;;;2.90;;
70138;SDS011;57507;43.056;0.150;2023-03-01T13:34:50;4.13;;;2.58;;
70138;SDS011;57507;43.056;0.150;2023-03-01T13:37:23;4.45;;;3.42;;
70138;SDS011;57507;43.056;0.150;2023-03-01T13:39:51;3.35;;;3.05;;
70138;SDS011;57507;43.056;0.150;2023-03-01T13:44:52;3.85;;;2.92;;
70138;SDS011;57507;43.056;0.150;2023-03-01T13:47:18;5.50;;;3.70;;
70138;SDS011;57507;43.056;0.150;2023-03-01T13:49:52;9.23;;;4.63;;
70138;SDS011;57507;43.056;0.150;2023-03-01T13:55:00;4.15;;;3.35;;
70138;SDS011;57507;43.056;0.150;2023-03-01T13:57:30;4.82;;;3.33;;
70138;SDS011;57507;43.056;0.150;2023-03-01T13:59:59;3.97;;;2.58;;
70138;SDS011;57507;43.056;0.150;2023-03-01T14:02:25;5.03;;;3.30;;
70138;SDS011;57507;43.056;0.150;2023-03-01T14:04:58;4.30;;;3.47;;
70138;SDS011;57507;43.056;0.150;2023-03-01T14:07:24;4.95;;;2.88;;
70138;SDS011;57507;43.056;0.150;2023-03-01T14:09:54;5.65;;;3.25;;
70138;SDS011;57507;43.056;0.150;2023-03-01T14:14:57;3.58;;;3.00;;
70138;SDS011;57507;43.056;0.150;2023-03-01T14:19:55;4.53;;;3.33;;
70138;SDS011;57507;43.056;0.150;2023-03-01T14:22:23;5.07;;;3.28;;
70138;SDS011;57507;43.056;0.150;2023-03-01T14:25:00;4.10;;;2.97;;
70138;SDS011;57507;43.056;0.150;2023-03-01T14:27:30;3.50;;;2.30;;
70138;SDS011;57507;43.056;0.150;2023-03-01T14:30:02;4.20;;;3.28;;
70138;SDS011;57507;43.056;0.150;2023-03-01T14:32:30;3.17;;;2.60;;
70138;SDS011;57507;43.056;0.150;2023-03-01T14:34:57;3.42;;;2.80;;
70138;SDS011;57507;43.056;0.150;2023-03-01T14:37:30;5.00;;;3.17;;
70138;SDS011;57507;43.056;0.150;2023-03-01T14:39:57;4.40;;;3.58;;
70138;SDS011;57507;43.056;0.150;2023-03-01T14:42:24;5.47;;;3.28;;
70138;SDS011;57507;43.056;0.150;2023-03-01T14:44:52;4.82;;;3.60;;
70138;SDS011;57507;43.056;0.150;2023-03-01T14:47:23;4.88;;;3.30;;
70138;SDS011;57507;43.056;0.150;2023-03-01T14:49:53;3.10;;;2.80;;
70138;SDS011;57507;43.056;0.150;2023-03-01T14:52:21;4.95;;;3.65;;
70138;SDS011;57507;43.056;0.150;2023-03-01T14:54:51;4.63;;;3.22;;
70138;SDS011;57507;43.056;0.150;2023-03-01T14:57:19;5.22;;;3.08;;
70138;SDS011;57507;43.056;0.150;2023-03-01T14:59:49;4.32;;;2.80;;
70138;SDS011;57507;43.056;0.150;2023-03-01T15:02:18;4.45;;;2.72;;
70138;SDS011;57507;43.056;0.150;2023-03-01T15:04:46;4.90;;;3.05;;
70138;SDS011;57507;43.056;0.150;2023-03-01T15:07:13;3.95;;;2.95;;
70138;SDS011;57507;43.056;0.150;2023-03-01T15:09:40;4.93;;;3.13;;
70138;SDS011;57507;43.056;0.150;2023-03-01T15:12:31;7.20;;;3.83;;
70138;SDS011;57507;43.056;0.150;2023-03-01T15:14:58;4.55;;;4.05;;
70138;SDS011;57507;43.056;0.150;2023-03-01T15:17:34;3.38;;;2.95;;
70138;SDS011;57507;43.056;0.150;2023-03-01T15:20:02;4.32;;;3.08;;
70138;SDS011;57507;43.056;0.150;2023-03-01T15:22:29;3.55;;;2.58;;
70138;SDS011;57507;43.056;0.150;2023-03-01T15:24:55;3.00;;;2.03;;
70138;SDS011;57507;43.056;0.150;2023-03-01T15:27:22;5.75;;;4.03;;
70138;SDS011;57507;43.056;0.150;2023-03-01T15:29:50;3.85;;;3.08;;
70138;SDS011;57507;43.056;0.150;2023-03-01T15:34:49;4.03;;;3.42;;
70138;SDS011;57507;43.056;0.150;2023-03-01T15:39:59;4.32;;;2.80;;
70138;SDS011;57507;43.056;0.150;2023-03-01T15:45:07;5.25;;;3.50;;
70138;SDS011;57507;43.056;0.150;2023-03-01T15:47:33;9.50;;;3.53;;
70138;SDS011;57507;43.056;0.150;2023-03-01T15:50:00;4.00;;;3.53;;
70138;SDS011;57507;43.056;0.150;2023-03-01T15:52:28;4.72;;;4.18;;
70138;SDS011;57507;43.056;0.150;2023-03-01T15:54:58;3.00;;;2.50;;
70138;SDS011;57507;43.056;0.150;2023-03-01T15:57:25;4.30;;;3.58;;
70138;SDS011;57507;43.056;0.150;2023-03-01T15:59:51;4.40;;;3.55;;
70138;SDS011;57507;43.056;0.150;2023-03-01T16:02:17;6.05;;;4.60;;
70138;SDS011;57507;43.056;0.150;2023-03-01T16:04:45;6.38;;;4.22;;
70138;SDS011;57507;43.056;0.150;2023-03-01T16:07:12;3.33;;;3.00;;
70138;SDS011;57507;43.056;0.150;2023-03-01T16:09:38;4.13;;;3.55;;
70138;SDS011;57507;43.056;0.150;2023-03-01T16:12:05;5.18;;;3.85;;
70138;SDS011;57507;43.056;0.150;2023-03-01T16:14:31;5.00;;;4.00;;
70138;SDS011;57507;43.056;0.150;2023-03-01T16:16:57;5.13;;;4.10;;
70138;SDS011;57507;43.056;0.150;2023-03-01T16:19:23;4.85;;;3.70;;
70138;SDS011;57507;43.056;0.150;2023-03-01T16:21:49;5.80;;;4.32;;
70138;SDS011;57507;43.056;0.150;2023-03-01T16:24:15;5.80;;;4.07;;
70138;SDS011;57507;43.056;0.150;2023-03-01T16:26:42;4.03;;;3.63;;
70138;SDS011;57507;43.056;0.150;2023-03-01T16:29:08;4.97;;;3.78;;
70138;SDS011;57507;43.056;0.150;2023-03-01T16:31:34;7.88;;;4.03;;
70138;SDS011;57507;43.056;0.150;2023-03-01T16:34:00;5.53;;;3.70;;
70138;SDS011;57507;43.056;0.150;2023-03-01T16:36:26;4.90;;;4.40;;
70138;SDS011;57507;43.056;0.150;2023-03-01T16:38:57;4.90;;;4.13;;
70138;SDS011;57507;43.056;0.150;2023-03-01T16:41:23;7.32;;;5.13;;
70138;SDS011;57507;43.056;0.150;2023-03-01T16:43:50;4.18;;;3.72;;
70138;SDS011;57507;43.056;0.150;2023-03-01T16:46:17;4.88;;;4.25;;
70138;SDS011;57507;43.056;0.150;2023-03-01T16:48:44;5.63;;;4.40;;
70138;SDS011;57507;43.056;0.150;2023-03-01T16:51:10;5.72;;;3.92;;
70138;SDS011;57507;43.056;0.150;2023-03-01T16:53:37;5.28;;;4.15;;
70138;SDS011;57507;43.056;0.150;2023-03-01T16:56:04;6.68;;;4.28;;